Hauptseite
METAR-TAF:

METAR-TAF

Flughäfen :

Saint-Denis, Réunion

Flughafen Réunion

Breite: 20-53S, Länge: 055-31E, Höhe: 21 m

Beobachtung

Neuester Wetterbericht von vor 30 Minuten, um 17:30 UTC
Wind 8 kt aus Südost
Temperatur 24°C
Luftfeuchtigkeit 83%
Luftdruck 1017 hPa
Sichtweite 10 km oder mehr
keine Wolken unter 1500 m und keine Kumulonimbus oder Gewitterwolken

METAR: FMEE 191730Z AUTO 13008KT CAVOK 24/21 Q1017 NOSIG

Zeit: 22:00 (18:00 UTC)

Prognose

Neuester Wetterbericht von vor 1 Stunde und 0 Minuten, um 17:00 UTC
Gültige Prognose vom 19 um 18 UTC bis 20 um 24 UTC
Wind 10 kt aus Südost
Sichtweite 10 km oder mehr
Aufgelockert bewölkt in der Höhe von 4500 ft
Übergehend zu
vom 20 um 04 UTC bis 20 um 06 UTC
Wind 15 kt aus Ost
Übergehend zu
vom 20 um 16 UTC bis 20 um 18 UTC
Wind 10 kt aus Südost

TAF: FMEE 191700Z 1918/2024 14010KT 9999 SCT045 BECMG 2004/2006 08015KT BECMG 2016/2018 14010KT

Wetterbeobachtungen und Prognosen von mehr als 4000 Flughäfen (METAR und TAF Bericht).

Die verfügbaren Stationen werden durch gelbe und rote Markierungen auf der Karte dargestellt.

Führen Sie die Maus auf sie, um den Namen der Station zu sehen.

Darauf klicken, um die Beobachtung von Wetterbeobachtungen und Prognosen zu sehen.

Um die Karte zu ändern : klicken Sie auf den grünen Tasten mit einem schwarzen Kreuz Zum Vergrößern, auf den grünen Button mit einem Gedankenstrich zu verkleinern, oder auf die grünen Pfeile für benachbarte Karten.


METAR-TAF: